Time;durP1;ratioP1;P1;durP2;ratioP2;P2;SDS_P1;SDS_P2;PMS_P1;PMS_P2;Temp;Humidity;BMP_temperature;BMP_pressure;BME280_temperature;BME280_humidity;BME280_pressure;Samples;Min_cycle;Max_cycle;Signal;HPM_P1;HPM_P2
2024/01/06 00:01:15;;;;;;;;;18.33;13.00;;;;;-143.90;100.00;75753.19;4850151;28;103327;-70
2024/01/06 00:03:42;;;;;;;;;22.67;21.00;;;;;-143.90;100.00;75751.13;4842728;28;102560;-70
2024/01/06 00:06:12;;;;;;;;;22.33;17.67;;;;;-143.90;100.00;75751.13;4845462;28;102596;-70
2024/01/06 00:08:39;;;;;;;;;16.00;12.00;;;;;-143.90;100.00;75751.13;4843193;28;102045;-70
2024/01/06 00:11:09;;;;;;;;;15.00;11.33;;;;;-143.90;100.00;75747.00;4842677;28;105149;-69
2024/01/06 00:13:36;;;;;;;;;5.00;4.00;;;;;-143.90;100.00;75734.59;4849042;28;103352;-70
2024/01/06 00:16:03;;;;;;;;;9.67;8.00;;;;;-143.90;100.00;75740.78;4849265;28;102064;-71
2024/01/06 00:18:29;;;;;;;;;10.00;8.50;;;;;-143.90;100.00;75736.66;4846653;28;102269;-71
2024/01/06 00:20:56;;;;;;;;;18.50;13.00;;;;;-143.90;100.00;75728.38;4831070;28;104157;-70
2024/01/06 00:23:23;;;;;;;;;14.50;12.00;;;;;-143.90;100.00;75720.13;4845884;28;102326;-69
2024/01/06 00:25:50;;;;;;;;;11.75;9.00;;;;;-143.90;100.00;75720.13;4848483;28;102172;-69
2024/01/06 00:28:16;;;;;;;;;12.75;8.00;;;;;-143.90;100.00;75722.19;4852243;28;103041;-71
2024/01/06 00:30:43;;;;;;;;;15.33;13.67;;;;;-143.90;100.00;75724.25;4838174;28;104188;-71
2024/01/06 00:33:10;;;;;;;;;15.00;11.00;;;;;-143.90;100.00;75728.38;4865852;28;103606;-70
2024/01/06 00:35:37;;;;;;;;;28.00;20.00;;;;;-143.90;100.00;75724.25;4865243;28;102769;-72
2024/01/06 00:38:03;;;;;;;;;22.33;15.33;;;;;-143.90;100.00;75724.25;4855409;28;103192;-70
2024/01/06 00:40:32;;;;;;;;;26.67;17.00;;;;;-143.90;100.00;75718.06;4857818;28;104114;-71
2024/01/06 00:42:59;;;;;;;;;14.33;10.67;;;;;-143.90;100.00;75722.19;4861502;28;103104;-71
2024/01/06 00:45:26;;;;;;;;;15.75;12.25;;;;;-143.90;100.00;75713.91;4864893;28;102067;-70
2024/01/06 00:47:53;;;;;;;;;11.25;7.50;;;;;-143.90;100.00;75711.84;4864864;28;102573;-70
2024/01/06 00:50:20;;;;;;;;;9.50;6.50;;;;;-143.90;100.00;75709.78;4865446;28;104308;-71
2024/01/06 00:52:46;;;;;;;;;8.50;8.00;;;;;-143.90;100.00;75709.78;4860260;28;102807;-70
2024/01/06 00:55:13;;;;;;;;;6.50;6.00;;;;;-143.90;100.00;75713.91;4860677;28;104897;-70
2024/01/06 00:57:40;;;;;;;;;10.00;8.00;;;;;-143.90;100.00;75730.47;4868275;28;102323;-71
2024/01/06 01:00:07;;;;;;;;;20.67;15.33;;;;;-143.90;100.00;75718.06;4853666;28;105094;-71
2024/01/06 01:02:34;;;;;;;;;16.00;15.00;;;;;-143.90;100.00;75711.84;4856156;28;102169;-72
2024/01/06 01:05:04;;;;;;;;;16.00;13.00;;;;;-143.90;100.00;75722.19;4861105;28;102029;-72
2024/01/06 01:07:31;;;;;;;;;34.00;31.00;;;;;-143.90;100.00;75726.31;4870121;28;102616;-71
2024/01/06 01:09:58;;;;;;;;;32.67;26.00;;;;;-143.90;100.00;75718.06;4863783;28;104463;-72
2024/01/06 01:12:25;;;;;;;;;43.67;37.00;;;;;-143.90;100.00;75726.31;4864214;28;103422;-72
2024/01/06 01:14:52;;;;;;;;;42.33;31.67;;;;;-143.90;100.00;75740.78;4857838;28;102595;-72
2024/01/06 01:17:19;;;;;;;;;56.33;38.33;;;;;-143.90;100.00;75744.94;4863008;28;104302;-72
2024/01/06 01:19:46;;;;;;;;;62.67;48.33;;;;;-143.90;100.00;75763.53;4866109;28;110178;-71
2024/01/06 01:22:13;;;;;;;;;43.67;31.00;;;;;-143.90;100.00;75767.69;4866830;28;102679;-73
2024/01/06 01:24:42;;;;;;;;;44.33;35.33;;;;;-143.90;100.00;75765.59;4858778;28;102044;-71
2024/01/06 01:27:09;;;;;;;;;36.67;30.67;;;;;-143.90;100.00;75749.06;4849969;28;104261;-72
2024/01/06 01:29:35;;;;;;;;;33.33;25.67;;;;;-143.90;100.00;75753.19;4870512;28;105358;-72
2024/01/06 01:32:02;;;;;;;;;30.67;23.67;;;;;-143.90;100.00;75755.28;4866492;28;102206;-71
2024/01/06 01:34:29;;;;;;;;;20.00;16.33;;;;;-143.90;100.00;75738.72;4863955;28;102384;-72
2024/01/06 01:36:56;;;;;;;;;22.67;21.33;;;;;-143.90;100.00;75742.88;4856888;28;103096;-72
2024/01/06 01:39:23;;;;;;;;;25.00;22.33;;;;;-143.90;100.00;75742.88;4859777;28;103018;-72
2024/01/06 01:41:50;;;;;;;;;35.00;29.00;;;;;-143.90;100.00;75742.88;4862353;28;103202;-72
2024/01/06 01:44:16;;;;;;;;;43.00;33.00;;;;;-143.90;100.00;75751.13;4862869;28;102635;-72
2024/01/06 01:46:43;;;;;;;;;33.00;26.33;;;;;-143.90;100.00;75747.00;4854077;28;102495;-71
2024/01/06 01:49:10;;;;;;;;;36.33;33.33;;;;;-143.90;100.00;75755.28;4858497;28;103986;-72
2024/01/06 01:51:38;;;;;;;;;33.00;27.00;;;;;-143.90;100.00;75751.13;4851040;28;102923;-72
2024/01/06 01:54:07;;;;;;;;;43.33;32.00;;;;;-143.90;100.00;75742.88;4849495;28;102358;-72
2024/01/06 01:56:34;;;;;;;;;41.33;33.00;;;;;-143.90;100.00;75742.88;4859235;28;102326;-72
2024/01/06 01:59:13;;;;;;;;;35.67;27.67;;;;;-143.90;100.00;75734.59;4851875;28;104377;-72
2024/01/06 02:01:40;;;;;;;;;23.00;20.33;;;;;-143.90;100.00;75724.25;4860562;28;102113;-71
2024/01/06 02:04:08;;;;;;;;;28.00;15.00;;;;;-143.90;100.00;75734.59;4861456;28;102489;-72
2024/01/06 02:06:35;;;;;;;;;25.00;22.33;;;;;-143.90;100.00;75728.38;4860336;28;102188;-72
2024/01/06 02:09:02;;;;;;;;;35.33;27.67;;;;;-143.90;100.00;75734.59;4840835;28;103944;-72
2024/01/06 02:11:29;;;;;;;;;52.67;44.00;;;;;-143.90;100.00;75753.19;4180539;28;10103969;-72
2024/01/06 02:13:55;;;;;;;;;58.67;46.33;;;;;-143.90;100.00;75763.53;4864286;28;102770;-72
2024/01/06 02:16:22;;;;;;;;;51.00;38.00;;;;;-143.90;100.00;75751.13;4858561;28;102108;-72
2024/01/06 02:18:49;;;;;;;;;53.33;43.67;;;;;-143.90;100.00;75755.28;4847352;28;102592;-73
2024/01/06 02:21:17;;;;;;;;;41.33;33.67;;;;;-143.90;100.00;75751.13;4865913;28;102386;-71
2024/01/06 02:23:44;;;;;;;;;43.67;34.67;;;;;-143.90;100.00;75759.41;4863861;28;109115;-71
2024/01/06 02:26:11;;;;;;;;;32.00;20.33;;;;;-143.90;100.00;75751.13;4856614;28;102690;-71
2024/01/06 02:28:38;;;;;;;;;40.67;35.33;;;;;-143.90;100.00;75771.81;4860248;28;102556;-71
2024/01/06 02:31:04;;;;;;;;;46.00;32.00;;;;;-143.90;100.00;75765.59;4843334;28;102511;-71
2024/01/06 02:33:31;;;;;;;;;33.00;26.00;;;;;-143.90;100.00;75771.81;4842475;28;104676;-71
2024/01/06 02:35:58;;;;;;;;;51.33;42.33;;;;;-143.90;100.00;75765.59;4838272;28;102492;-72
2024/01/06 02:38:25;;;;;;;;;48.33;37.67;;;;;-143.90;100.00;75769.75;4839062;28;102797;-70
2024/01/06 02:40:52;;;;;;;;;51.67;40.67;;;;;-143.90;100.00;75761.47;4835820;28;102659;-71
2024/01/06 02:43:18;;;;;;;;;58.00;41.00;;;;;-143.90;100.00;75759.41;4841575;28;104101;-71
2024/01/06 02:45:46;;;;;;;;;44.00;33.00;;;;;-143.90;100.00;75771.81;4835897;28;103780;-70
2024/01/06 02:48:13;;;;;;;;;54.33;40.00;;;;;-143.90;100.00;75763.53;4841866;28;103617;-71
2024/01/06 02:50:40;;;;;;;;;45.00;34.67;;;;;-143.90;100.00;75759.41;4841092;28;102241;-71
2024/01/06 02:53:09;;;;;;;;;49.33;42.00;;;;;-143.90;100.00;75761.47;4834515;28;106717;-70
2024/01/06 02:55:36;;;;;;;;;43.00;38.33;;;;;-143.90;100.00;75780.09;4844498;28;102503;-71
2024/01/06 02:58:03;;;;;;;;;68.00;54.33;;;;;-143.90;100.00;75782.16;4840904;28;102546;-71
2024/01/06 03:00:29;;;;;;;;;82.00;60.33;;;;;-143.90;100.00;75780.09;4841473;28;102175;-71
2024/01/06 03:02:56;;;;;;;;;66.67;50.67;;;;;-143.90;100.00;75763.53;4830405;28;104315;-71
2024/01/06 03:05:23;;;;;;;;;56.33;39.33;;;;;-143.90;100.00;75767.69;4840361;28;102224;-70
2024/01/06 03:07:50;;;;;;;;;43.67;35.33;;;;;-143.90;100.00;75759.41;4838536;28;103352;-71
2024/01/06 03:10:16;;;;;;;;;38.00;30.00;;;;;-143.90;100.00;75747.00;4844247;28;102550;-70
2024/01/06 03:12:43;;;;;;;;;46.00;37.00;;;;;-143.90;100.00;75755.28;4834423;28;103455;-71
2024/01/06 03:15:11;;;;;;;;;37.00;23.00;;;;;-143.90;100.00;75742.88;4838720;28;102168;-71
2024/01/06 03:17:38;;;;;;;;;31.33;24.33;;;;;-143.90;100.00;75749.06;4837580;28;103980;-70
2024/01/06 03:20:05;;;;;;;;;38.00;30.33;;;;;-143.90;100.00;75757.34;4845369;28;102152;-71
2024/01/06 03:22:32;;;;;;;;;36.00;30.67;;;;;-143.90;100.00;75755.28;4842551;28;105681;-70
2024/01/06 03:24:59;;;;;;;;;43.00;31.67;;;;;-143.90;100.00;75763.53;4821179;28;108148;-72
2024/01/06 03:27:26;;;;;;;;;37.67;32.67;;;;;-143.90;100.00;75753.19;4843146;28;102896;-70
2024/01/06 03:29:52;;;;;;;;;46.67;41.00;;;;;-143.90;100.00;75755.28;4841193;28;102308;-71
2024/01/06 03:32:19;;;;;;;;;51.00;40.67;;;;;-143.90;100.00;75744.94;4843993;28;104122;-71
2024/01/06 03:34:46;;;;;;;;;34.67;33.00;;;;;-143.90;100.00;75734.59;4841700;28;102611;-71
2024/01/06 03:37:13;;;;;;;;;53.00;39.00;;;;;-143.90;100.00;75744.94;4842413;28;102568;-71
2024/01/06 03:39:39;;;;;;;;;31.00;21.00;;;;;-143.90;100.00;75740.78;4848292;28;103862;-72
2024/01/06 03:42:06;;;;;;;;;34.33;25.67;;;;;-143.90;100.00;75742.88;4844603;28;105391;-72
2024/01/06 03:44:33;;;;;;;;;28.33;25.67;;;;;-143.90;100.00;75734.59;4844986;28;102308;-71
2024/01/06 03:47:00;;;;;;;;;30.33;23.67;;;;;-143.90;100.00;75730.47;4845369;28;102399;-72
2024/01/06 03:49:27;;;;;;;;;49.33;43.00;;;;;-143.90;100.00;75730.47;4845687;28;102018;-72
2024/01/06 03:51:54;;;;;;;;;49.67;41.67;;;;;-143.90;100.00;75730.47;4845537;28;104015;-72
2024/01/06 03:54:22;;;;;;;;;78.67;57.00;;;;;-143.90;100.00;75751.13;4849829;28;102226;-72
2024/01/06 03:56:49;;;;;;;;;68.67;54.33;;;;;-143.90;100.00;75734.59;4841257;28;102496;-71
2024/01/06 03:59:15;;;;;;;;;68.33;49.00;;;;;-143.90;100.00;75724.25;4831699;28;103197;-72
2024/01/06 04:01:42;;;;;;;;;58.00;42.67;;;;;-143.90;100.00;75709.78;4847046;28;104255;-71
2024/01/06 04:04:09;;;;;;;;;64.33;49.00;;;;;-143.90;100.00;75720.13;4844232;28;102497;-70
2024/01/06 04:06:36;;;;;;;;;63.33;45.00;;;;;-143.90;100.00;75722.19;4841401;28;102968;-71
2024/01/06 04:09:02;;;;;;;;;53.67;42.00;;;;;-143.90;100.00;75718.06;4840425;28;104948;-71
2024/01/06 04:11:29;;;;;;;;;37.33;33.33;;;;;-143.90;100.00;75713.91;4846859;28;103352;-71
2024/01/06 04:13:56;;;;;;;;;49.33;37.67;;;;;-143.90;100.00;75705.66;4847074;28;102208;-70
2024/01/06 04:16:22;;;;;;;;;28.00;25.00;;;;;-143.90;100.00;75703.56;4831978;28;102104;-71
2024/01/06 04:18:49;;;;;;;;;36.00;26.00;;;;;-143.90;100.00;75705.66;4839648;28;102043;-71
2024/01/06 04:21:16;;;;;;;;;52.00;39.33;;;;;-143.90;100.00;75713.91;4841064;28;108045;-71
2024/01/06 04:23:43;;;;;;;;;52.33;43.67;;;;;-143.90;100.00;75713.91;4844131;28;102857;-71
2024/01/06 04:26:10;;;;;;;;;72.33;52.00;;;;;-143.90;100.00;75718.06;4840250;28;102457;-70
2024/01/06 04:28:36;;;;;;;;;62.00;48.33;;;;;-143.90;100.00;75707.72;4847073;28;102503;-71
2024/01/06 04:31:03;;;;;;;;;57.00;45.67;;;;;-143.90;100.00;75705.66;4854769;28;105436;-70
2024/01/06 04:33:31;;;;;;;;;45.67;35.33;;;;;-143.90;100.00;75701.50;4864448;28;102659;-70
2024/01/06 04:35:58;;;;;;;;;45.00;37.00;;;;;-143.90;100.00;75691.16;4866769;28;102507;-70
2024/01/06 04:38:25;;;;;;;;;29.00;23.00;;;;;-143.90;100.00;75687.03;4866108;28;102533;-70
2024/01/06 04:40:52;;;;;;;;;23.00;20.67;;;;;-143.90;100.00;75684.97;4848149;28;104068;-70
2024/01/06 04:43:19;;;;;;;;;21.33;17.33;;;;;-143.90;100.00;75678.75;4868778;28;101946;-71
2024/01/06 04:45:45;;;;;;;;;18.25;16.75;;;;;-143.90;100.00;75676.69;4864754;28;103336;-71
2024/01/06 04:48:12;;;;;;;;;15.75;14.00;;;;;-143.90;100.00;75672.56;4866195;28;102665;-71
2024/01/06 04:50:39;;;;;;;;;36.67;30.00;;;;;-143.90;100.00;75680.84;4859907;28;104087;-71
2024/01/06 04:53:06;;;;;;;;;33.33;30.33;;;;;-143.90;100.00;75689.09;4861604;28;102634;-71
2024/01/06 04:55:32;;;;;;;;;31.67;28.33;;;;;-143.90;100.00;75680.84;4864618;28;102562;-70
2024/01/06 04:57:59;;;;;;;;;33.00;27.00;;;;;-143.90;100.00;75678.75;4865273;28;103112;-70
2024/01/06 05:00:26;;;;;;;;;30.00;26.00;;;;;-143.90;100.00;75674.63;4862719;28;103764;-71
2024/01/06 05:02:52;;;;;;;;;25.67;20.33;;;;;-143.90;100.00;75672.56;4838728;28;103431;-71
2024/01/06 05:05:19;;;;;;;;;26.00;20.00;;;;;-143.90;100.00;75666.34;4863288;28;103631;-72
2024/01/06 05:07:46;;;;;;;;;32.00;26.33;;;;;-143.90;100.00;75662.22;4848055;28;102066;-71
2024/01/06 05:10:12;;;;;;;;;19.33;16.33;;;;;-143.90;100.00;75660.16;4864398;28;104304;-70
2024/01/06 05:12:39;;;;;;;;;16.33;10.33;;;;;-143.90;100.00;75668.44;4863682;28;102977;-71
2024/01/06 05:15:06;;;;;;;;;26.00;16.33;;;;;-143.90;100.00;75660.16;4856371;28;102463;-71
2024/01/06 05:17:33;;;;;;;;;26.33;23.00;;;;;-143.90;100.00;75666.34;4866015;28;103529;-70
2024/01/06 05:20:00;;;;;;;;;24.00;21.33;;;;;-143.90;100.00;75666.34;4861282;28;103219;-70
2024/01/06 05:22:27;;;;;;;;;34.00;30.00;;;;;-143.90;100.00;75676.69;4863188;28;102360;-70
2024/01/06 05:24:53;;;;;;;;;56.33;44.00;;;;;-143.90;100.00;75676.69;4854624;28;103836;-71
2024/01/06 05:27:20;;;;;;;;;60.67;48.33;;;;;-143.90;100.00;75676.69;4868079;28;103726;-71
2024/01/06 05:29:49;;;;;;;;;57.33;47.67;;;;;-143.90;100.00;75672.56;4862826;28;108677;-72
2024/01/06 05:32:17;;;;;;;;;69.00;51.67;;;;;-143.90;100.00;75684.97;4865019;28;102945;-71
2024/01/06 05:34:44;;;;;;;;;76.33;58.00;;;;;-143.90;100.00;75684.97;4855697;28;103478;-70
2024/01/06 05:37:11;;;;;;;;;77.33;59.33;;;;;-143.90;100.00;75691.16;4863130;28;103872;-71
2024/01/06 05:39:39;;;;;;;;;81.75;59.25;;;;;-143.90;100.00;75687.03;4859835;28;104351;-71
2024/01/06 05:42:07;;;;;;;;;70.67;55.33;;;;;-143.90;100.00;75684.97;4864250;28;103481;-72
2024/01/06 05:44:37;;;;;;;;;76.67;55.00;;;;;-143.90;100.00;75697.38;4861424;28;102333;-72
2024/01/06 05:47:04;;;;;;;;;80.00;54.00;;;;;-143.90;100.00;75699.44;4858525;28;103409;-70
2024/01/06 05:49:30;;;;;;;;;71.67;52.33;;;;;-143.90;100.00;75693.25;4860985;28;104190;-71
2024/01/06 05:51:57;;;;;;;;;67.33;54.00;;;;;-143.90;100.00;75687.03;4860443;28;102445;-70
2024/01/06 05:54:24;;;;;;;;;58.67;44.67;;;;;-143.90;100.00;75680.84;4863866;28;102260;-70
2024/01/06 05:56:51;;;;;;;;;49.00;41.00;;;;;-143.90;100.00;75678.75;4855296;28;102396;-71
2024/01/06 05:59:18;;;;;;;;;71.33;54.00;;;;;-143.90;100.00;75691.16;4865024;28;109004;-71
2024/01/06 06:01:45;;;;;;;;;65.33;49.33;;;;;-143.90;100.00;75689.09;4863836;28;102640;-71
2024/01/06 06:04:12;;;;;;;;;68.33;51.33;;;;;-143.90;100.00;75682.91;4863550;28;102453;-71
2024/01/06 06:06:38;;;;;;;;;64.67;49.00;;;;;-143.90;100.00;75689.09;4856244;28;102525;-71
2024/01/06 06:09:07;;;;;;;;;54.67;44.00;;;;;-143.90;100.00;75680.84;4859247;28;105169;-71
2024/01/06 06:11:34;;;;;;;;;54.67;45.00;;;;;-143.90;100.00;75680.84;4861321;28;103026;-71
2024/01/06 06:14:02;;;;;;;;;77.33;59.33;;;;;-143.90;100.00;75695.31;4858154;28;103555;-72
2024/01/06 06:16:29;;;;;;;;;66.00;53.00;;;;;-143.90;100.00;75687.03;4862986;28;102922;-72
2024/01/06 06:18:56;;;;;;;;;60.33;45.00;;;;;-143.90;100.00;75676.69;4854109;28;103578;-70
2024/01/06 06:21:23;;;;;;;;;68.00;51.67;;;;;-143.90;100.00;75684.97;4844286;28;102387;-70
2024/01/06 06:23:50;;;;;;;;;73.33;49.67;;;;;-143.90;100.00;75689.09;4868549;28;102292;-70
2024/01/06 06:26:18;;;;;;;;;66.67;55.00;;;;;-143.90;100.00;75689.09;4861747;28;102551;-71
2024/01/06 06:28:45;;;;;;;;;81.67;62.33;;;;;-143.90;100.00;75674.63;4855073;28;103313;-71
2024/01/06 06:31:11;;;;;;;;;74.00;53.67;;;;;-143.90;100.00;75678.75;4845626;28;102358;-72
2024/01/06 06:33:39;;;;;;;;;75.33;59.67;;;;;-143.90;100.00;75689.09;4843821;28;102100;-71
2024/01/06 06:36:06;;;;;;;;;76.67;59.33;;;;;-143.90;100.00;75687.03;4844637;28;102419;-70
2024/01/06 06:38:33;;;;;;;;;71.00;53.67;;;;;-143.90;100.00;75676.69;4844647;28;104115;-71
2024/01/06 06:40:59;;;;;;;;;71.67;55.33;;;;;-143.90;100.00;75676.69;4835291;28;102255;-71
2024/01/06 06:43:26;;;;;;;;;60.00;45.00;;;;;-143.90;100.00;75666.34;4845600;28;102373;-70
2024/01/06 06:45:55;;;;;;;;;50.33;37.00;;;;;-143.90;100.00;75660.16;4845034;28;102545;-70
2024/01/06 06:48:22;;;;;;;;;77.00;53.67;;;;;-143.90;100.00;75662.22;4827301;28;104339;-72
2024/01/06 06:50:49;;;;;;;;;68.33;52.00;;;;;-143.90;100.00;75664.28;4839447;28;103412;-71
2024/01/06 06:53:15;;;;;;;;;79.67;62.00;;;;;-143.90;100.00;75676.69;4843434;28;102183;-71
2024/01/06 06:55:42;;;;;;;;;64.00;49.00;;;;;-143.90;100.00;75670.50;4846947;28;103982;-71
2024/01/06 06:58:09;;;;;;;;;61.00;48.33;;;;;-143.90;100.00;75658.09;4844493;28;104258;-70
2024/01/06 07:00:35;;;;;;;;;25.33;17.00;;;;;-143.90;100.00;75645.69;4841621;28;102791;-70
2024/01/06 07:03:02;;;;;;;;;56.67;45.33;;;;;-143.90;100.00;75651.88;4826061;28;102047;-71
2024/01/06 07:05:29;;;;;;;;;53.33;42.67;;;;;-143.90;100.00;75639.47;4832327;28;102812;-71
2024/01/06 07:07:56;;;;;;;;;38.67;30.00;;;;;-143.90;100.00;75639.47;4845802;28;103751;-71
2024/01/06 07:10:23;;;;;;;;;39.00;30.67;;;;;-143.90;100.00;75631.22;4833530;28;102439;-72
2024/01/06 07:12:50;;;;;;;;;44.33;39.00;;;;;-143.90;100.00;75635.34;4840986;28;103694;-73
2024/01/06 07:15:16;;;;;;;;;42.67;35.67;;;;;-143.90;100.00;75620.88;4846098;28;103343;-71
2024/01/06 07:17:43;;;;;;;;;70.33;56.67;;;;;-143.90;100.00;75639.47;4841756;28;104406;-71
2024/01/06 07:20:10;;;;;;;;;82.00;62.00;;;;;-143.90;100.00;75647.75;4842867;28;103699;-71
2024/01/06 07:22:37;;;;;;;;;70.00;51.67;;;;;-143.90;100.00;75635.34;4843193;28;103909;-72
2024/01/06 07:25:05;;;;;;;;;69.00;52.00;;;;;-143.90;100.00;75635.34;4842634;28;102298;-72
2024/01/06 07:27:32;;;;;;;;;66.00;46.67;;;;;-143.90;100.00;75622.94;4844294;28;102902;-70
2024/01/06 07:29:59;;;;;;;;;64.33;44.00;;;;;-143.90;100.00;75618.81;4845927;28;102376;-70
2024/01/06 07:32:25;;;;;;;;;49.00;40.33;;;;;-143.90;100.00;75610.53;4842749;28;101947;-70
2024/01/06 07:34:52;;;;;;;;;54.33;42.00;;;;;-143.90;100.00;75602.25;4838461;28;102281;-72
2024/01/06 07:37:19;;;;;;;;;58.33;43.67;;;;;-143.90;100.00;75606.41;4848557;28;103250;-72
2024/01/06 07:39:46;;;;;;;;;71.00;54.00;;;;;-143.90;100.00;75608.47;4846082;28;102543;-71
2024/01/06 07:42:13;;;;;;;;;71.33;54.00;;;;;-143.90;100.00;75616.72;4842719;28;102490;-71
2024/01/06 07:44:39;;;;;;;;;73.67;55.33;;;;;-143.90;100.00;75612.59;4842920;28;103596;-71
2024/01/06 07:47:06;;;;;;;;;61.00;44.00;;;;;-143.90;100.00;75606.41;4840633;28;104315;-71
2024/01/06 07:49:33;;;;;;;;;62.33;50.33;;;;;-143.90;100.00;75610.53;4840297;28;102400;-70
2024/01/06 07:52:00;;;;;;;;;78.00;58.67;;;;;-143.90;100.00;75620.88;4844804;28;102668;-70
2024/01/06 07:54:27;;;;;;;;;76.00;53.67;;;;;-143.90;100.00;75614.66;4829327;28;102306;-70
2024/01/06 07:56:55;;;;;;;;;76.00;59.33;;;;;-143.90;100.00;75618.81;4837832;28;104091;-70
2024/01/06 07:59:22;;;;;;;;;72.67;56.67;;;;;-143.90;100.00;75627.06;4845365;28;102609;-71
2024/01/06 08:01:48;;;;;;;;;74.00;54.00;;;;;-143.90;100.00;75614.66;4849685;28;102204;-71
2024/01/06 08:04:15;;;;;;;;;67.00;51.33;;;;;-143.90;100.00;75618.81;4844387;28;102298;-70
2024/01/06 08:06:42;;;;;;;;;74.33;52.67;;;;;-143.90;100.00;75622.94;4829725;28;104824;-71
2024/01/06 08:09:09;;;;;;;;;74.00;56.67;;;;;-143.90;100.00;75629.13;4843613;28;103931;-71
2024/01/06 08:11:36;;;;;;;;;92.00;65.25;;;;;-143.90;100.00;75643.63;4829510;28;104471;-71
2024/01/06 08:14:03;;;;;;;;;71.25;49.75;;;;;-143.90;100.00;75651.88;4847904;28;103097;-71
2024/01/06 08:16:29;;;;;;;;;75.00;56.33;;;;;-143.90;100.00;75645.69;4845809;28;104241;-71
2024/01/06 08:18:56;;;;;;;;;75.33;59.00;;;;;-143.90;100.00;75649.81;4831039;28;102997;-70
2024/01/06 08:21:23;;;;;;;;;66.33;50.33;;;;;-143.90;100.00;75631.22;4849606;28;102372;-69
2024/01/06 08:23:50;;;;;;;;;37.67;32.33;;;;;-143.90;100.00;75627.06;4851649;28;101951;-69
2024/01/06 08:26:17;;;;;;;;;49.33;39.67;;;;;-143.90;100.00;75618.81;4831675;28;110068;-69
2024/01/06 08:28:44;;;;;;;;;35.00;26.33;;;;;-143.90;100.00;75606.41;4838785;28;102768;-69
2024/01/06 08:31:11;;;;;;;;;33.67;24.00;;;;;-143.90;100.00;75602.25;4861002;28;102574;-70
2024/01/06 08:33:37;;;;;;;;;26.33;20.67;;;;;-143.90;100.00;75589.84;4867138;28;102229;-69
2024/01/06 08:36:05;;;;;;;;;32.33;27.33;;;;;-143.90;100.00;75575.38;4860611;28;103162;-69
2024/01/06 08:38:32;;;;;;;;;32.33;26.67;;;;;-143.90;100.00;75573.31;4864589;28;102992;-70
2024/01/06 08:40:58;;;;;;;;;33.00;28.00;;;;;-143.90;100.00;75573.31;4835282;28;102849;-70
2024/01/06 08:43:25;;;;;;;;;13.50;12.50;;;;;-143.90;100.00;75558.84;4851528;28;102073;-69
2024/01/06 08:45:52;;;;;;;;;20.75;14.25;;;;;-143.90;100.00;75534.03;4863325;28;104050;-70
2024/01/06 08:48:19;;;;;;;;;29.33;27.67;;;;;-143.90;100.00;75529.91;4859641;28;102096;-71
2024/01/06 08:50:46;;;;;;;;;24.75;21.75;;;;;-143.90;100.00;75529.91;4859764;28;102228;-71
2024/01/06 08:53:13;;;;;;;;;32.33;30.67;;;;;-143.90;100.00;75523.69;4862284;28;102186;-71
2024/01/06 08:55:40;;;;;;;;;48.67;30.33;;;;;-143.90;100.00;75513.34;4861633;28;104124;-71
2024/01/06 08:58:10;;;;;;;;;24.50;20.50;;;;;-143.90;100.00;75505.09;4860597;28;102326;-70
2024/01/06 09:00:37;;;;;;;;;22.50;18.25;;;;;-143.90;100.00;75507.16;4860905;28;104793;-73
2024/01/06 09:03:04;;;;;;;;;34.67;29.00;;;;;-143.90;100.00;75498.88;4839162;28;103555;-70
2024/01/06 09:05:30;;;;;;;;;38.00;30.33;;;;;-143.90;100.00;75511.28;4860206;28;104353;-70
2024/01/06 09:07:57;;;;;;;;;48.00;37.00;;;;;-143.90;100.00;75507.16;4864428;28;102209;-69
2024/01/06 09:10:24;;;;;;;;;40.00;32.67;;;;;-143.90;100.00;75503.03;4858909;28;101928;-70
2024/01/06 09:12:50;;;;;;;;;74.67;55.00;;;;;-143.90;100.00;75515.41;4858681;28;103138;-70
2024/01/06 09:15:17;;;;;;;;;69.33;54.00;;;;;-143.90;100.00;75513.34;4845588;28;108554;-70
2024/01/06 09:17:44;;;;;;;;;63.33;47.67;;;;;-143.90;100.00;75503.03;4860997;28;103143;-70
2024/01/06 09:20:10;;;;;;;;;67.00;50.00;;;;;-143.90;100.00;75507.16;4863164;28;102906;-71
2024/01/06 09:22:37;;;;;;;;;61.00;47.33;;;;;-143.90;100.00;75507.16;4858997;28;102257;-70
2024/01/06 09:25:04;;;;;;;;;71.33;53.67;;;;;-143.90;100.00;75511.28;4854054;28;104387;-71
2024/01/06 09:27:32;;;;;;;;;71.67;50.00;;;;;-143.90;100.00;75507.16;4859557;28;103800;-71
2024/01/06 09:29:59;;;;;;;;;62.00;48.00;;;;;-143.90;100.00;75513.34;4855705;28;102598;-70
2024/01/06 09:32:26;;;;;;;;;68.00;51.67;;;;;-143.90;100.00;75515.41;4848262;28;102817;-72
2024/01/06 09:34:52;;;;;;;;;58.33;50.33;;;;;-143.90;100.00;75523.69;4836429;28;104206;-71
2024/01/06 09:37:19;;;;;;;;;75.67;57.33;;;;;-143.90;100.00;75527.81;4845998;28;102552;-72
2024/01/06 09:39:46;;;;;;;;;66.67;50.00;;;;;-143.90;100.00;75519.56;4844914;28;102550;-71
2024/01/06 09:42:13;;;;;;;;;69.67;47.33;;;;;-143.90;100.00;75511.28;4846438;28;102205;-70
2024/01/06 09:44:39;;;;;;;;;62.67;48.33;;;;;-143.90;100.00;75515.41;4832972;28;104796;-71
2024/01/06 09:47:11;;;;;;;;;69.67;53.33;;;;;-143.90;100.00;75515.41;4842804;28;102468;-71
2024/01/06 09:49:41;;;;;;;;;79.00;58.67;;;;;-143.90;100.00;75519.56;4840149;28;102055;-71
2024/01/06 09:52:17;;;;;;;;;73.67;56.00;;;;;-143.90;100.00;75515.41;4843136;28;103965;-71
2024/01/06 09:54:52;;;;;;;;;70.33;54.00;;;;;-143.90;100.00;75511.28;4838467;28;104258;-71
2024/01/06 09:57:20;;;;;;;;;58.00;43.67;;;;;-143.90;100.00;75503.03;4845573;28;102470;-71
2024/01/06 09:59:47;;;;;;;;;66.67;52.67;;;;;-143.90;100.00;75496.81;4846134;28;102119;-70
2024/01/06 10:02:16;;;;;;;;;68.67;52.00;;;;;-143.90;100.00;75509.22;4841851;28;103542;-70
2024/01/06 10:04:45;;;;;;;;;67.67;52.00;;;;;-143.90;100.00;75509.22;4837142;28;104731;-70
2024/01/06 10:07:13;;;;;;;;;70.33;56.67;;;;;-143.90;100.00;75527.81;4843412;28;105156;-71
2024/01/06 10:09:43;;;;;;;;;68.67;52.00;;;;;-143.90;100.00;75513.34;4845014;28;102022;-71
2024/01/06 10:12:10;;;;;;;;;60.00;44.67;;;;;-143.90;100.00;75503.03;4846881;28;103419;-71
2024/01/06 10:14:38;;;;;;;;;72.33;52.00;;;;;-143.90;100.00;75519.56;4848031;28;104219;-71
2024/01/06 10:17:08;;;;;;;;;81.00;57.00;;;;;-143.90;100.00;75515.41;4844493;28;104004;-70
2024/01/06 10:19:36;;;;;;;;;75.67;59.33;;;;;-143.90;100.00;75507.16;4844602;28;102310;-71
2024/01/06 10:22:03;;;;;;;;;85.67;59.67;;;;;-143.90;100.00;75511.28;4849767;28;103672;-72
2024/01/06 10:24:31;;;;;;;;;92.00;65.67;;;;;-143.90;100.00;75511.28;4843921;28;104651;-72
2024/01/06 10:26:58;;;;;;;;;81.00;62.00;;;;;-143.90;100.00;75505.09;4820465;28;102591;-72
2024/01/06 10:29:26;;;;;;;;;83.33;61.33;;;;;-143.90;100.00;75496.81;4845090;28;102125;-72
2024/01/06 10:31:54;;;;;;;;;86.67;63.67;;;;;-143.90;100.00;75490.63;4841742;28;102245;-72
2024/01/06 10:34:23;;;;;;;;;75.00;58.00;;;;;-143.90;100.00;75480.28;4849262;28;103537;-72
2024/01/06 10:36:53;;;;;;;;;84.33;59.33;;;;;-143.90;100.00;75474.06;4839589;28;104402;-72
2024/01/06 10:39:21;;;;;;;;;75.67;53.33;;;;;-143.90;100.00;75451.31;4835162;28;102069;-73
2024/01/06 10:41:49;;;;;;;;;59.67;44.00;;;;;-143.90;100.00;75447.19;4850271;28;102030;-72
2024/01/06 10:44:16;;;;;;;;;68.00;51.00;;;;;-143.90;100.00;75432.72;4849413;28;103400;-71
2024/01/06 10:46:44;;;;;;;;;62.33;48.33;;;;;-143.90;100.00;75432.72;4842853;28;102570;-73